This is the latest recevied weather packets stored in our database for station/object SP3WRO-13. If no packets are shown the sender has not sent any weather packets the latest 10 day(s).
| Time | Temp. | Humidity | Pressure | Rain* | Wind** | Luminosity | Snow |
|---|---|---|---|---|---|---|---|
| 1777660155 | 15.56° C | 54% | 1020.2 hPa | - | - | 2 W/m² | - |
| 1777659255 | 16.67° C | 48% | 1020 hPa | - | - | 6 W/m² | - |
| 1777658354 | 17.78° C | 44% | 1019.9 hPa | - | - | 13 W/m² | - |
| 1777657454 | 20.56° C | 37% | 1019.8 hPa | - | - | 21 W/m² | - |
| 1777656554 | 21.67° C | 33% | 1019.9 hPa | - | - | 30 W/m² | - |
| 1777655654 | 22.78° C | 31% | 1019.8 hPa | - | - | 38 W/m² | - |
| 1777654754 | 23.33° C | 28% | 1019.8 hPa | - | - | 42 W/m² | - |
| 1777653854 | 23.89° C | 27% | 1019.9 hPa | - | - | 48 W/m² | - |
| 1777652954 | 23.33° C | 28% | 1020 hPa | - | - | 47 W/m² | - |
| 1777652054 | 23.89° C | 28% | 1020.1 hPa | - | - | 50 W/m² | - |
| 1777651154 | 23.89° C | 26% | 1020.2 hPa | - | - | 92 W/m² | - |
| 1777650254 | 23.89° C | 27% | 1020.4 hPa | - | - | 97 W/m² | - |
| 1777649354 | 24.44° C | 27% | 1020.4 hPa | - | - | 90 W/m² | - |
| 1777648453 | 23.89° C | 26% | 1020.5 hPa | - | - | 242 W/m² | - |
| 1777647553 | 24.44° C | 25% | 1020.7 hPa | - | - | 318 W/m² | - |
| 1777646653 | 23.89° C | 27% | 1020.8 hPa | - | - | 369 W/m² | - |
| 1777645753 | 23.89° C | 27% | 1020.9 hPa | - | - | 406 W/m² | - |
| 1777644853 | 24.44° C | 27% | 1021.1 hPa | - | - | 447 W/m² | - |
| 1777643953 | 24.44° C | 28% | 1021.1 hPa | - | - | 491 W/m² | - |
| 1777643053 | 23.89° C | 27% | 1021.2 hPa | - | - | 522 W/m² | - |
| 1777642153 | 23.33° C | 28% | 1021.3 hPa | - | - | 558 W/m² | - |
| 1777641253 | 23.33° C | 29% | 1021.5 hPa | - | - | 589 W/m² | - |
| 1777640353 | 23.33° C | 29% | 1021.6 hPa | - | - | 617 W/m² | - |
| 1777639452 | 23.89° C | 29% | 1021.8 hPa | - | - | 648 W/m² | - |
| 1777638552 | 23.33° C | 31% | 1022.1 hPa | - | - | 681 W/m² | - |
* Rain since midnight (hover to see other rain measurements)
** Current wind speed in m/s (hover to see current wind gust speed)